sensor_id;sensor_type;location;lat;lon;timestamp;P1;durP1;ratioP1;P2;durP2;ratioP2
31464;SDS011;18089;47.428;15.006;2023-04-10T00:01:51;15.57;;;14.07;;
31464;SDS011;18089;47.428;15.006;2023-04-10T00:04:23;16.57;;;14.93;;
31464;SDS011;18089;47.428;15.006;2023-04-10T00:06:55;15.97;;;14.27;;
31464;SDS011;18089;47.428;15.006;2023-04-10T00:09:27;17.27;;;15.60;;
31464;SDS011;18089;47.428;15.006;2023-04-10T00:12:00;16.40;;;14.90;;
31464;SDS011;18089;47.428;15.006;2023-04-10T00:14:32;15.10;;;13.60;;
31464;SDS011;18089;47.428;15.006;2023-04-10T00:17:05;16.07;;;14.33;;
31464;SDS011;18089;47.428;15.006;2023-04-10T00:19:37;18.23;;;16.13;;
31464;SDS011;18089;47.428;15.006;2023-04-10T00:22:09;19.53;;;17.37;;
31464;SDS011;18089;47.428;15.006;2023-04-10T00:24:41;20.80;;;17.43;;
31464;SDS011;18089;47.428;15.006;2023-04-10T00:27:15;19.00;;;16.93;;
31464;SDS011;18089;47.428;15.006;2023-04-10T00:29:47;21.87;;;18.00;;
31464;SDS011;18089;47.428;15.006;2023-04-10T00:32:19;19.00;;;16.97;;
31464;SDS011;18089;47.428;15.006;2023-04-10T00:34:51;20.03;;;17.53;;
31464;SDS011;18089;47.428;15.006;2023-04-10T00:37:23;18.47;;;16.53;;
31464;SDS011;18089;47.428;15.006;2023-04-10T00:39:55;17.47;;;15.67;;
31464;SDS011;18089;47.428;15.006;2023-04-10T00:42:28;17.70;;;15.97;;
31464;SDS011;18089;47.428;15.006;2023-04-10T00:45:00;17.40;;;15.67;;
31464;SDS011;18089;47.428;15.006;2023-04-10T00:47:32;16.37;;;14.77;;
31464;SDS011;18089;47.428;15.006;2023-04-10T00:50:05;17.90;;;16.30;;
31464;SDS011;18089;47.428;15.006;2023-04-10T00:52:38;17.10;;;15.43;;
31464;SDS011;18089;47.428;15.006;2023-04-10T00:55:10;16.93;;;15.40;;
31464;SDS011;18089;47.428;15.006;2023-04-10T00:57:44;17.23;;;15.20;;
31464;SDS011;18089;47.428;15.006;2023-04-10T01:00:16;17.50;;;15.63;;
31464;SDS011;18089;47.428;15.006;2023-04-10T01:02:49;17.10;;;15.27;;
31464;SDS011;18089;47.428;15.006;2023-04-10T01:05:21;15.97;;;14.47;;
31464;SDS011;18089;47.428;15.006;2023-04-10T01:07:57;17.33;;;15.57;;
31464;SDS011;18089;47.428;15.006;2023-04-10T01:10:33;17.73;;;16.00;;
31464;SDS011;18089;47.428;15.006;2023-04-10T01:13:16;18.20;;;16.60;;
31464;SDS011;18089;47.428;15.006;2023-04-10T01:15:54;15.27;;;13.83;;
31464;SDS011;18089;47.428;15.006;2023-04-10T01:18:30;16.43;;;15.10;;
31464;SDS011;18089;47.428;15.006;2023-04-10T01:21:05;16.63;;;15.07;;
31464;SDS011;18089;47.428;15.006;2023-04-10T01:23:45;18.00;;;15.73;;
31464;SDS011;18089;47.428;15.006;2023-04-10T01:26:40;18.17;;;16.40;;
31464;SDS011;18089;47.428;15.006;2023-04-10T01:29:20;18.77;;;16.73;;
31464;SDS011;18089;47.428;15.006;2023-04-10T01:31:56;18.47;;;16.67;;
31464;SDS011;18089;47.428;15.006;2023-04-10T01:34:31;18.80;;;17.20;;
31464;SDS011;18089;47.428;15.006;2023-04-10T01:37:07;18.17;;;16.47;;
31464;SDS011;18089;47.428;15.006;2023-04-10T01:39:42;17.07;;;15.40;;
31464;SDS011;18089;47.428;15.006;2023-04-10T01:42:19;18.33;;;16.60;;
31464;SDS011;18089;47.428;15.006;2023-04-10T01:44:54;18.80;;;16.80;;
31464;SDS011;18089;47.428;15.006;2023-04-10T01:47:27;18.80;;;16.30;;
31464;SDS011;18089;47.428;15.006;2023-04-10T01:49:59;17.10;;;15.60;;
31464;SDS011;18089;47.428;15.006;2023-04-10T01:52:31;17.97;;;16.27;;
31464;SDS011;18089;47.428;15.006;2023-04-10T01:55:04;17.47;;;15.97;;
31464;SDS011;18089;47.428;15.006;2023-04-10T01:57:37;17.90;;;16.17;;
31464;SDS011;18089;47.428;15.006;2023-04-10T02:00:11;18.87;;;16.90;;
31464;SDS011;18089;47.428;15.006;2023-04-10T02:02:43;18.07;;;16.27;;
31464;SDS011;18089;47.428;15.006;2023-04-10T02:05:16;17.40;;;15.70;;
31464;SDS011;18089;47.428;15.006;2023-04-10T02:07:49;17.10;;;15.50;;
31464;SDS011;18089;47.428;15.006;2023-04-10T02:10:27;16.77;;;15.20;;
31464;SDS011;18089;47.428;15.006;2023-04-10T02:13:02;17.87;;;16.17;;
31464;SDS011;18089;47.428;15.006;2023-04-10T02:15:38;16.53;;;15.03;;
31464;SDS011;18089;47.428;15.006;2023-04-10T02:18:13;17.07;;;15.40;;
31464;SDS011;18089;47.428;15.006;2023-04-10T02:20:46;15.90;;;14.50;;
31464;SDS011;18089;47.428;15.006;2023-04-10T02:23:19;16.33;;;14.83;;
31464;SDS011;18089;47.428;15.006;2023-04-10T02:25:52;15.90;;;14.50;;
31464;SDS011;18089;47.428;15.006;2023-04-10T02:28:26;15.80;;;14.40;;
31464;SDS011;18089;47.428;15.006;2023-04-10T02:31:00;16.33;;;14.87;;
31464;SDS011;18089;47.428;15.006;2023-04-10T02:33:32;16.07;;;14.57;;
31464;SDS011;18089;47.428;15.006;2023-04-10T02:36:04;15.90;;;14.40;;
31464;SDS011;18089;47.428;15.006;2023-04-10T02:38:37;15.87;;;14.37;;
31464;SDS011;18089;47.428;15.006;2023-04-10T02:41:09;15.97;;;14.47;;
31464;SDS011;18089;47.428;15.006;2023-04-10T02:43:41;16.60;;;15.13;;
31464;SDS011;18089;47.428;15.006;2023-04-10T02:46:14;16.80;;;15.20;;
31464;SDS011;18089;47.428;15.006;2023-04-10T02:48:46;15.63;;;14.20;;
31464;SDS011;18089;47.428;15.006;2023-04-10T02:51:18;15.23;;;13.93;;
31464;SDS011;18089;47.428;15.006;2023-04-10T02:53:50;16.07;;;14.63;;
31464;SDS011;18089;47.428;15.006;2023-04-10T02:56:23;16.00;;;14.70;;
31464;SDS011;18089;47.428;15.006;2023-04-10T02:58:56;14.90;;;13.70;;
31464;SDS011;18089;47.428;15.006;2023-04-10T03:01:29;15.63;;;14.33;;
31464;SDS011;18089;47.428;15.006;2023-04-10T03:04:02;14.90;;;13.60;;
31464;SDS011;18089;47.428;15.006;2023-04-10T03:06:34;15.70;;;14.40;;
31464;SDS011;18089;47.428;15.006;2023-04-10T03:09:06;16.00;;;14.60;;
31464;SDS011;18089;47.428;15.006;2023-04-10T03:11:38;15.07;;;13.83;;
31464;SDS011;18089;47.428;15.006;2023-04-10T03:14:10;16.07;;;14.77;;
31464;SDS011;18089;47.428;15.006;2023-04-10T03:16:43;15.77;;;14.47;;
31464;SDS011;18089;47.428;15.006;2023-04-10T03:19:16;15.33;;;14.13;;
31464;SDS011;18089;47.428;15.006;2023-04-10T03:21:48;15.77;;;14.40;;
31464;SDS011;18089;47.428;15.006;2023-04-10T03:24:20;15.70;;;14.50;;
31464;SDS011;18089;47.428;15.006;2023-04-10T03:26:52;15.27;;;14.07;;
31464;SDS011;18089;47.428;15.006;2023-04-10T03:29:26;15.27;;;14.07;;
31464;SDS011;18089;47.428;15.006;2023-04-10T03:31:59;16.13;;;14.93;;
31464;SDS011;18089;47.428;15.006;2023-04-10T03:34:31;15.70;;;14.37;;
31464;SDS011;18089;47.428;15.006;2023-04-10T03:37:03;15.77;;;14.37;;
31464;SDS011;18089;47.428;15.006;2023-04-10T03:39:35;15.90;;;14.60;;
31464;SDS011;18089;47.428;15.006;2023-04-10T03:42:07;16.87;;;15.27;;
31464;SDS011;18089;47.428;15.006;2023-04-10T03:44:39;16.20;;;14.80;;
31464;SDS011;18089;47.428;15.006;2023-04-10T03:47:12;15.97;;;14.67;;
31464;SDS011;18089;47.428;15.006;2023-04-10T03:49:44;15.90;;;14.50;;
31464;SDS011;18089;47.428;15.006;2023-04-10T03:52:16;15.37;;;14.17;;
31464;SDS011;18089;47.428;15.006;2023-04-10T03:54:48;16.17;;;14.77;;
31464;SDS011;18089;47.428;15.006;2023-04-10T03:57:21;16.03;;;14.63;;
31464;SDS011;18089;47.428;15.006;2023-04-10T03:59:53;15.27;;;14.07;;
31464;SDS011;18089;47.428;15.006;2023-04-10T04:02:26;17.23;;;15.83;;
31464;SDS011;18089;47.428;15.006;2023-04-10T04:04:58;15.07;;;13.77;;
31464;SDS011;18089;47.428;15.006;2023-04-10T04:07:30;16.20;;;14.90;;
31464;SDS011;18089;47.428;15.006;2023-04-10T04:10:03;15.87;;;14.47;;
31464;SDS011;18089;47.428;15.006;2023-04-10T04:12:35;15.87;;;14.37;;
31464;SDS011;18089;47.428;15.006;2023-04-10T04:15:07;16.80;;;15.30;;
31464;SDS011;18089;47.428;15.006;2023-04-10T04:17:41;16.83;;;15.43;;
31464;SDS011;18089;47.428;15.006;2023-04-10T04:20:15;16.07;;;14.87;;
31464;SDS011;18089;47.428;15.006;2023-04-10T04:22:47;14.90;;;13.60;;
31464;SDS011;18089;47.428;15.006;2023-04-10T04:25:19;15.10;;;13.90;;
31464;SDS011;18089;47.428;15.006;2023-04-10T04:27:51;16.40;;;15.00;;
31464;SDS011;18089;47.428;15.006;2023-04-10T04:30:23;15.97;;;14.50;;
31464;SDS011;18089;47.428;15.006;2023-04-10T04:32:56;16.70;;;15.37;;
31464;SDS011;18089;47.428;15.006;2023-04-10T04:35:28;16.60;;;15.23;;
31464;SDS011;18089;47.428;15.006;2023-04-10T04:38:00;16.13;;;14.83;;
31464;SDS011;18089;47.428;15.006;2023-04-10T04:40:32;16.53;;;15.10;;
31464;SDS011;18089;47.428;15.006;2023-04-10T04:43:04;17.50;;;15.90;;
31464;SDS011;18089;47.428;15.006;2023-04-10T04:45:36;17.63;;;15.73;;
31464;SDS011;18089;47.428;15.006;2023-04-10T04:48:10;42.47;;;27.67;;
31464;SDS011;18089;47.428;15.006;2023-04-10T04:50:42;56.50;;;31.43;;
31464;SDS011;18089;47.428;15.006;2023-04-10T04:53:14;65.57;;;34.63;;
31464;SDS011;18089;47.428;15.006;2023-04-10T04:55:46;46.67;;;29.03;;
31464;SDS011;18089;47.428;15.006;2023-04-10T04:58:18;27.20;;;21.07;;
31464;SDS011;18089;47.428;15.006;2023-04-10T05:00:52;27.40;;;22.03;;
31464;SDS011;18089;47.428;15.006;2023-04-10T05:03:26;24.40;;;20.23;;
31464;SDS011;18089;47.428;15.006;2023-04-10T05:05:58;24.80;;;20.23;;
31464;SDS011;18089;47.428;15.006;2023-04-10T05:08:30;19.10;;;17.20;;
31464;SDS011;18089;47.428;15.006;2023-04-10T05:11:02;20.03;;;18.03;;
31464;SDS011;18089;47.428;15.006;2023-04-10T05:13:34;21.33;;;18.97;;
31464;SDS011;18089;47.428;15.006;2023-04-10T05:16:07;20.20;;;18.10;;
31464;SDS011;18089;47.428;15.006;2023-04-10T05:18:40;16.97;;;15.43;;
31464;SDS011;18089;47.428;15.006;2023-04-10T05:21:12;18.67;;;16.60;;
31464;SDS011;18089;47.428;15.006;2023-04-10T05:23:44;19.33;;;17.37;;
31464;SDS011;18089;47.428;15.006;2023-04-10T05:26:16;17.73;;;16.00;;
31464;SDS011;18089;47.428;15.006;2023-04-10T05:28:48;17.97;;;16.37;;
31464;SDS011;18089;47.428;15.006;2023-04-10T05:31:20;19.40;;;16.90;;
31464;SDS011;18089;47.428;15.006;2023-04-10T05:33:54;18.57;;;16.87;;
31464;SDS011;18089;47.428;15.006;2023-04-10T05:36:26;19.23;;;17.27;;
31464;SDS011;18089;47.428;15.006;2023-04-10T05:38:58;18.30;;;16.30;;
31464;SDS011;18089;47.428;15.006;2023-04-10T05:41:30;18.20;;;16.30;;
31464;SDS011;18089;47.428;15.006;2023-04-10T05:44:02;18.40;;;16.60;;
31464;SDS011;18089;47.428;15.006;2023-04-10T05:46:34;18.40;;;16.60;;
31464;SDS011;18089;47.428;15.006;2023-04-10T05:49:07;18.97;;;16.93;;
31464;SDS011;18089;47.428;15.006;2023-04-10T05:51:39;17.53;;;15.97;;
31464;SDS011;18089;47.428;15.006;2023-04-10T05:54:11;16.63;;;15.13;;
31464;SDS011;18089;47.428;15.006;2023-04-10T05:56:43;16.35;;;14.98;;
31464;SDS011;18089;47.428;15.006;2023-04-10T05:59:15;17.33;;;15.60;;
31464;SDS011;18089;47.428;15.006;2023-04-10T06:01:47;16.67;;;15.20;;
31464;SDS011;18089;47.428;15.006;2023-04-10T06:04:21;17.07;;;15.47;;
31464;SDS011;18089;47.428;15.006;2023-04-10T06:06:53;18.05;;;16.35;;
31464;SDS011;18089;47.428;15.006;2023-04-10T06:09:25;17.02;;;15.43;;
31464;SDS011;18089;47.428;15.006;2023-04-10T06:11:57;15.90;;;14.40;;
31464;SDS011;18089;47.428;15.006;2023-04-10T06:14:30;15.77;;;14.48;;
31464;SDS011;18089;47.428;15.006;2023-04-10T06:17:02;17.33;;;15.63;;
31464;SDS011;18089;47.428;15.006;2023-04-10T06:19:35;17.50;;;15.80;;
31464;SDS011;18089;47.428;15.006;2023-04-10T06:22:07;17.87;;;15.97;;
31464;SDS011;18089;47.428;15.006;2023-04-10T06:24:40;16.30;;;14.65;;
31464;SDS011;18089;47.428;15.006;2023-04-10T06:27:12;16.05;;;14.43;;
31464;SDS011;18089;47.428;15.006;2023-04-10T06:29:44;15.18;;;13.77;;
31464;SDS011;18089;47.428;15.006;2023-04-10T06:32:16;16.50;;;14.80;;
31464;SDS011;18089;47.428;15.006;2023-04-10T06:34:49;16.42;;;14.82;;
31464;SDS011;18089;47.428;15.006;2023-04-10T06:37:26;16.52;;;14.93;;
31464;SDS011;18089;47.428;15.006;2023-04-10T06:40:01;17.08;;;15.55;;
31464;SDS011;18089;47.428;15.006;2023-04-10T06:42:34;16.02;;;14.55;;
31464;SDS011;18089;47.428;15.006;2023-04-10T06:45:07;16.02;;;14.60;;
31464;SDS011;18089;47.428;15.006;2023-04-10T06:47:39;15.88;;;14.38;;
31464;SDS011;18089;47.428;15.006;2023-04-10T06:50:12;16.45;;;14.45;;
31464;SDS011;18089;47.428;15.006;2023-04-10T06:52:44;15.88;;;14.48;;
31464;SDS011;18089;47.428;15.006;2023-04-10T06:55:17;15.18;;;13.85;;
31464;SDS011;18089;47.428;15.006;2023-04-10T06:57:49;15.35;;;14.05;;
31464;SDS011;18089;47.428;15.006;2023-04-10T07:00:22;14.25;;;12.95;;
31464;SDS011;18089;47.428;15.006;2023-04-10T07:02:54;15.07;;;13.75;;
31464;SDS011;18089;47.428;15.006;2023-04-10T07:05:27;15.45;;;13.95;;
31464;SDS011;18089;47.428;15.006;2023-04-10T07:07:59;16.30;;;14.77;;
31464;SDS011;18089;47.428;15.006;2023-04-10T07:10:31;16.77;;;14.38;;
31464;SDS011;18089;47.428;15.006;2023-04-10T07:13:03;16.27;;;14.75;;
31464;SDS011;18089;47.428;15.006;2023-04-10T07:15:36;16.17;;;14.57;;
31464;SDS011;18089;47.428;15.006;2023-04-10T07:18:08;15.52;;;13.80;;
31464;SDS011;18089;47.428;15.006;2023-04-10T07:20:41;15.40;;;14.00;;
31464;SDS011;18089;47.428;15.006;2023-04-10T07:23:13;16.70;;;14.93;;
31464;SDS011;18089;47.428;15.006;2023-04-10T07:25:45;13.80;;;12.60;;
31464;SDS011;18089;47.428;15.006;2023-04-10T07:28:17;14.25;;;12.82;;
31464;SDS011;18089;47.428;15.006;2023-04-10T07:30:49;15.40;;;13.48;;
31464;SDS011;18089;47.428;15.006;2023-04-10T07:33:21;16.15;;;14.65;;
31464;SDS011;18089;47.428;15.006;2023-04-10T07:35:55;14.23;;;12.65;;
31464;SDS011;18089;47.428;15.006;2023-04-10T07:38:27;14.07;;;12.77;;
31464;SDS011;18089;47.428;15.006;2023-04-10T07:40:59;13.52;;;12.30;;
31464;SDS011;18089;47.428;15.006;2023-04-10T07:43:31;14.15;;;12.90;;
31464;SDS011;18089;47.428;15.006;2023-04-10T07:46:03;14.43;;;13.13;;
31464;SDS011;18089;47.428;15.006;2023-04-10T07:48:36;15.38;;;13.85;;
31464;SDS011;18089;47.428;15.006;2023-04-10T07:51:09;16.15;;;14.55;;
31464;SDS011;18089;47.428;15.006;2023-04-10T07:53:41;24.65;;;18.65;;
31464;SDS011;18089;47.428;15.006;2023-04-10T07:56:16;25.08;;;17.25;;
31464;SDS011;18089;47.428;15.006;2023-04-10T07:58:49;13.38;;;12.25;;
31464;SDS011;18089;47.428;15.006;2023-04-10T08:01:22;13.13;;;11.95;;
31464;SDS011;18089;47.428;15.006;2023-04-10T08:03:54;13.82;;;12.52;;
31464;SDS011;18089;47.428;15.006;2023-04-10T08:06:27;14.40;;;13.00;;
31464;SDS011;18089;47.428;15.006;2023-04-10T08:09:00;13.93;;;12.63;;
31464;SDS011;18089;47.428;15.006;2023-04-10T08:11:33;13.82;;;12.02;;
31464;SDS011;18089;47.428;15.006;2023-04-10T08:14:05;13.98;;;12.57;;
31464;SDS011;18089;47.428;15.006;2023-04-10T08:16:37;13.80;;;12.50;;
31464;SDS011;18089;47.428;15.006;2023-04-10T08:19:09;13.23;;;12.00;;
31464;SDS011;18089;47.428;15.006;2023-04-10T08:21:43;12.55;;;11.43;;
31464;SDS011;18089;47.428;15.006;2023-04-10T08:24:15;15.00;;;13.43;;
31464;SDS011;18089;47.428;15.006;2023-04-10T08:26:49;12.23;;;11.13;;
31464;SDS011;18089;47.428;15.006;2023-04-10T08:29:21;13.13;;;11.85;;
31464;SDS011;18089;47.428;15.006;2023-04-10T08:31:54;12.23;;;11.13;;
31464;SDS011;18089;47.428;15.006;2023-04-10T08:34:29;11.98;;;10.57;;
31464;SDS011;18089;47.428;15.006;2023-04-10T08:37:05;11.35;;;10.35;;
31464;SDS011;18089;47.428;15.006;2023-04-10T08:39:38;12.10;;;10.90;;
31464;SDS011;18089;47.428;15.006;2023-04-10T08:42:10;11.55;;;10.48;;
31464;SDS011;18089;47.428;15.006;2023-04-10T08:44:42;11.43;;;10.43;;
31464;SDS011;18089;47.428;15.006;2023-04-10T08:47:15;10.95;;;10.05;;
31464;SDS011;18089;47.428;15.006;2023-04-10T08:49:50;12.07;;;10.98;;
31464;SDS011;18089;47.428;15.006;2023-04-10T08:52:26;10.90;;;10.00;;
31464;SDS011;18089;47.428;15.006;2023-04-10T08:55:01;10.50;;;9.60;;
31464;SDS011;18089;47.428;15.006;2023-04-10T08:57:37;11.02;;;10.02;;
31464;SDS011;18089;47.428;15.006;2023-04-10T09:00:10;10.25;;;9.35;;
31464;SDS011;18089;47.428;15.006;2023-04-10T09:02:42;15.60;;;12.80;;
31464;SDS011;18089;47.428;15.006;2023-04-10T09:05:14;10.93;;;9.95;;
31464;SDS011;18089;47.428;15.006;2023-04-10T09:07:49;10.43;;;9.43;;
31464;SDS011;18089;47.428;15.006;2023-04-10T09:10:21;10.68;;;9.60;;
31464;SDS011;18089;47.428;15.006;2023-04-10T09:12:53;10.48;;;9.48;;
31464;SDS011;18089;47.428;15.006;2023-04-10T09:15:25;9.93;;;8.95;;
31464;SDS011;18089;47.428;15.006;2023-04-10T09:17:58;11.20;;;10.07;;
31464;SDS011;18089;47.428;15.006;2023-04-10T09:20:30;9.70;;;8.73;;
31464;SDS011;18089;47.428;15.006;2023-04-10T09:23:05;12.10;;;9.48;;
31464;SDS011;18089;47.428;15.006;2023-04-10T09:25:51;11.90;;;10.55;;
31464;SDS011;18089;47.428;15.006;2023-04-10T09:28:23;11.93;;;10.57;;
31464;SDS011;18089;47.428;15.006;2023-04-10T09:30:55;11.15;;;10.05;;
31464;SDS011;18089;47.428;15.006;2023-04-10T09:33:27;10.63;;;9.63;;
31464;SDS011;18089;47.428;15.006;2023-04-10T09:35:59;11.65;;;10.35;;
31464;SDS011;18089;47.428;15.006;2023-04-10T09:38:34;11.10;;;10.10;;
31464;SDS011;18089;47.428;15.006;2023-04-10T09:41:07;10.65;;;9.65;;
31464;SDS011;18089;47.428;15.006;2023-04-10T09:43:39;11.85;;;9.20;;
31464;SDS011;18089;47.428;15.006;2023-04-10T09:46:12;10.48;;;9.13;;
31464;SDS011;18089;47.428;15.006;2023-04-10T09:48:57;11.32;;;9.77;;
31464;SDS011;18089;47.428;15.006;2023-04-10T09:51:30;15.77;;;11.75;;
31464;SDS011;18089;47.428;15.006;2023-04-10T09:54:05;12.15;;;11.02;;
31464;SDS011;18089;47.428;15.006;2023-04-10T09:56:37;10.55;;;9.27;;
31464;SDS011;18089;47.428;15.006;2023-04-10T09:59:10;10.13;;;9.13;;
31464;SDS011;18089;47.428;15.006;2023-04-10T10:01:44;9.93;;;8.93;;
31464;SDS011;18089;47.428;15.006;2023-04-10T10:04:16;10.32;;;9.23;;
31464;SDS011;18089;47.428;15.006;2023-04-10T10:06:49;8.88;;;7.95;;
31464;SDS011;18089;47.428;15.006;2023-04-10T10:09:22;9.00;;;8.10;;
31464;SDS011;18089;47.428;15.006;2023-04-10T10:11:55;8.40;;;7.60;;
31464;SDS011;18089;47.428;15.006;2023-04-10T10:14:27;8.75;;;7.95;;
31464;SDS011;18089;47.428;15.006;2023-04-10T10:16:59;7.60;;;6.85;;
31464;SDS011;18089;47.428;15.006;2023-04-10T10:19:35;8.13;;;7.32;;
31464;SDS011;18089;47.428;15.006;2023-04-10T10:22:09;8.30;;;7.50;;
31464;SDS011;18089;47.428;15.006;2023-04-10T10:24:43;8.15;;;7.35;;
31464;SDS011;18089;47.428;15.006;2023-04-10T10:27:17;7.68;;;6.88;;
31464;SDS011;18089;47.428;15.006;2023-04-10T10:29:50;7.07;;;6.38;;
31464;SDS011;18089;47.428;15.006;2023-04-10T10:32:24;8.52;;;7.65;;
31464;SDS011;18089;47.428;15.006;2023-04-10T10:34:57;8.00;;;7.30;;
31464;SDS011;18089;47.428;15.006;2023-04-10T10:37:30;8.02;;;7.22;;
31464;SDS011;18089;47.428;15.006;2023-04-10T10:40:04;7.43;;;6.72;;
31464;SDS011;18089;47.428;15.006;2023-04-10T10:42:40;7.97;;;7.18;;
31464;SDS011;18089;47.428;15.006;2023-04-10T10:45:22;7.43;;;6.72;;
31464;SDS011;18089;47.428;15.006;2023-04-10T10:47:56;6.85;;;6.22;;
31464;SDS011;18089;47.428;15.006;2023-04-10T10:53:34;10.50;;;8.80;;
31464;SDS011;18089;47.428;15.006;2023-04-10T10:59:06;8.00;;;6.82;;
31464;SDS011;18089;47.428;15.006;2023-04-10T11:01:38;9.32;;;7.53;;
31464;SDS011;18089;47.428;15.006;2023-04-10T11:04:46;8.60;;;7.70;;
31464;SDS011;18089;47.428;15.006;2023-04-10T11:07:19;7.97;;;7.18;;
31464;SDS011;18089;47.428;15.006;2023-04-10T11:09:52;8.68;;;7.68;;
31464;SDS011;18089;47.428;15.006;2023-04-10T11:12:27;8.02;;;7.22;;
31464;SDS011;18089;47.428;15.006;2023-04-10T11:15:00;7.72;;;6.93;;
31464;SDS011;18089;47.428;15.006;2023-04-10T11:17:47;6.97;;;6.10;;
31464;SDS011;18089;47.428;15.006;2023-04-10T11:20:20;7.75;;;7.05;;
31464;SDS011;18089;47.428;15.006;2023-04-10T11:23:06;7.50;;;6.18;;
31464;SDS011;18089;47.428;15.006;2023-04-10T11:25:46;6.85;;;6.25;;
31464;SDS011;18089;47.428;15.006;2023-04-10T11:28:37;7.70;;;6.90;;
31464;SDS011;18089;47.428;15.006;2023-04-10T11:31:13;8.23;;;7.30;;
31464;SDS011;18089;47.428;15.006;2023-04-10T11:33:59;7.00;;;6.30;;
31464;SDS011;18089;47.428;15.006;2023-04-10T11:36:32;7.85;;;6.97;;
31464;SDS011;18089;47.428;15.006;2023-04-10T11:39:05;8.57;;;7.65;;
31464;SDS011;18089;47.428;15.006;2023-04-10T11:41:39;8.05;;;7.25;;
31464;SDS011;18089;47.428;15.006;2023-04-10T11:44:17;8.73;;;7.88;;
31464;SDS011;18089;47.428;15.006;2023-04-10T11:46:51;7.22;;;6.18;;
31464;SDS011;18089;47.428;15.006;2023-04-10T11:49:24;7.63;;;6.93;;
31464;SDS011;18089;47.428;15.006;2023-04-10T11:51:58;7.30;;;6.60;;
31464;SDS011;18089;47.428;15.006;2023-04-10T11:54:30;6.35;;;5.60;;
31464;SDS011;18089;47.428;15.006;2023-04-10T11:57:03;7.10;;;5.43;;
31464;SDS011;18089;47.428;15.006;2023-04-10T11:59:37;5.80;;;5.25;;
31464;SDS011;18089;47.428;15.006;2023-04-10T12:02:10;5.18;;;4.68;;
31464;SDS011;18089;47.428;15.006;2023-04-10T12:04:43;6.47;;;4.57;;
31464;SDS011;18089;47.428;15.006;2023-04-10T12:07:15;5.07;;;4.57;;
31464;SDS011;18089;47.428;15.006;2023-04-10T12:09:54;4.95;;;4.45;;
31464;SDS011;18089;47.428;15.006;2023-04-10T12:12:33;5.10;;;4.60;;
31464;SDS011;18089;47.428;15.006;2023-04-10T12:17:57;5.35;;;4.85;;
31464;SDS011;18089;47.428;15.006;2023-04-10T12:20:29;5.90;;;5.30;;
31464;SDS011;18089;47.428;15.006;2023-04-10T12:23:01;6.80;;;5.38;;
31464;SDS011;18089;47.428;15.006;2023-04-10T12:25:34;6.00;;;5.40;;
31464;SDS011;18089;47.428;15.006;2023-04-10T12:28:06;5.35;;;4.85;;
31464;SDS011;18089;47.428;15.006;2023-04-10T12:30:45;6.63;;;5.93;;
31464;SDS011;18089;47.428;15.006;2023-04-10T12:33:21;6.10;;;5.22;;
31464;SDS011;18089;47.428;15.006;2023-04-10T12:35:53;7.82;;;5.97;;
31464;SDS011;18089;47.428;15.006;2023-04-10T12:38:35;8.50;;;6.47;;
31464;SDS011;18089;47.428;15.006;2023-04-10T12:41:08;7.47;;;6.40;;
31464;SDS011;18089;47.428;15.006;2023-04-10T12:43:41;7.32;;;5.75;;
31464;SDS011;18089;47.428;15.006;2023-04-10T12:46:25;5.55;;;5.05;;
31464;SDS011;18089;47.428;15.006;2023-04-10T12:49:07;6.15;;;5.55;;
31464;SDS011;18089;47.428;15.006;2023-04-10T12:51:40;5.68;;;5.18;;
31464;SDS011;18089;47.428;15.006;2023-04-10T12:54:28;6.22;;;5.63;;
31464;SDS011;18089;47.428;15.006;2023-04-10T12:57:01;4.82;;;4.40;;
31464;SDS011;18089;47.428;15.006;2023-04-10T12:59:33;5.57;;;5.18;;
31464;SDS011;18089;47.428;15.006;2023-04-10T13:02:07;5.35;;;4.60;;
31464;SDS011;18089;47.428;15.006;2023-04-10T13:04:40;5.10;;;4.55;;
31464;SDS011;18089;47.428;15.006;2023-04-10T13:07:12;5.63;;;5.03;;
31464;SDS011;18089;47.428;15.006;2023-04-10T13:09:44;6.07;;;5.47;;
31464;SDS011;18089;47.428;15.006;2023-04-10T13:12:16;5.82;;;5.22;;
31464;SDS011;18089;47.428;15.006;2023-04-10T13:14:48;6.40;;;5.13;;
31464;SDS011;18089;47.428;15.006;2023-04-10T13:17:21;5.63;;;5.07;;
31464;SDS011;18089;47.428;15.006;2023-04-10T13:19:54;5.38;;;4.82;;
31464;SDS011;18089;47.428;15.006;2023-04-10T13:22:26;5.63;;;5.10;;
31464;SDS011;18089;47.428;15.006;2023-04-10T13:24:58;45.47;;;31.55;;
31464;SDS011;18089;47.428;15.006;2023-04-10T13:27:30;6.35;;;5.40;;
31464;SDS011;18089;47.428;15.006;2023-04-10T13:30:02;5.90;;;5.28;;
31464;SDS011;18089;47.428;15.006;2023-04-10T13:32:36;4.78;;;4.35;;
31464;SDS011;18089;47.428;15.006;2023-04-10T13:35:08;5.03;;;4.60;;
31464;SDS011;18089;47.428;15.006;2023-04-10T13:37:40;5.88;;;4.90;;
31464;SDS011;18089;47.428;15.006;2023-04-10T13:40:12;8.05;;;6.60;;
31464;SDS011;18089;47.428;15.006;2023-04-10T13:42:44;7.25;;;5.13;;
31464;SDS011;18089;47.428;15.006;2023-04-10T13:45:16;5.72;;;5.03;;
31464;SDS011;18089;47.428;15.006;2023-04-10T13:47:50;5.97;;;5.43;;
31464;SDS011;18089;47.428;15.006;2023-04-10T13:50:22;6.88;;;5.85;;
31464;SDS011;18089;47.428;15.006;2023-04-10T13:52:54;7.07;;;6.38;;
31464;SDS011;18089;47.428;15.006;2023-04-10T13:55:26;5.50;;;5.00;;
31464;SDS011;18089;47.428;15.006;2023-04-10T13:57:58;4.80;;;4.38;;
31464;SDS011;18089;47.428;15.006;2023-04-10T14:00:30;5.85;;;5.18;;
31464;SDS011;18089;47.428;15.006;2023-04-10T14:03:03;6.15;;;5.35;;
31464;SDS011;18089;47.428;15.006;2023-04-10T14:05:39;5.70;;;5.07;;
31464;SDS011;18089;47.428;15.006;2023-04-10T14:08:11;5.82;;;5.22;;
31464;SDS011;18089;47.428;15.006;2023-04-10T14:10:45;5.55;;;4.95;;
31464;SDS011;18089;47.428;15.006;2023-04-10T14:13:19;9.18;;;7.88;;
31464;SDS011;18089;47.428;15.006;2023-04-10T14:15:51;4.72;;;4.32;;
31464;SDS011;18089;47.428;15.006;2023-04-10T14:18:25;5.10;;;4.60;;
31464;SDS011;18089;47.428;15.006;2023-04-10T14:20:57;4.28;;;3.88;;
31464;SDS011;18089;47.428;15.006;2023-04-10T14:23:29;5.90;;;5.40;;
31464;SDS011;18089;47.428;15.006;2023-04-10T14:26:01;5.63;;;5.10;;
31464;SDS011;18089;47.428;15.006;2023-04-10T14:28:33;5.60;;;5.10;;
31464;SDS011;18089;47.428;15.006;2023-04-10T14:31:05;6.10;;;5.13;;
31464;SDS011;18089;47.428;15.006;2023-04-10T14:33:39;5.72;;;4.32;;
31464;SDS011;18089;47.428;15.006;2023-04-10T14:36:11;4.90;;;4.40;;
31464;SDS011;18089;47.428;15.006;2023-04-10T14:38:43;5.38;;;4.88;;
31464;SDS011;18089;47.428;15.006;2023-04-10T14:41:15;5.30;;;4.80;;
31464;SDS011;18089;47.428;15.006;2023-04-10T14:43:47;4.78;;;4.38;;
31464;SDS011;18089;47.428;15.006;2023-04-10T14:46:19;5.68;;;4.28;;
31464;SDS011;18089;47.428;15.006;2023-04-10T14:48:53;4.43;;;3.92;;
31464;SDS011;18089;47.428;15.006;2023-04-10T14:51:25;4.57;;;4.18;;
31464;SDS011;18089;47.428;15.006;2023-04-10T14:53:58;4.47;;;4.00;;
31464;SDS011;18089;47.428;15.006;2023-04-10T14:56:30;4.47;;;4.10;;
31464;SDS011;18089;47.428;15.006;2023-04-10T14:59:02;4.43;;;4.03;;
31464;SDS011;18089;47.428;15.006;2023-04-10T15:01:34;6.85;;;4.22;;
31464;SDS011;18089;47.428;15.006;2023-04-10T15:04:07;5.28;;;4.78;;